createdAt,value
2023-05-08T00:00:41.540Z,60.64
2023-05-08T00:01:41.539Z,60.61
2023-05-08T00:02:41.638Z,60.53
2023-05-08T00:03:41.686Z,60.61
2023-05-08T00:04:41.640Z,60.74
2023-05-08T00:05:41.594Z,60.66
2023-05-08T00:06:41.609Z,60.60
2023-05-08T00:07:41.635Z,60.36
2023-05-08T00:08:41.628Z,60.37
2023-05-08T00:09:41.648Z,60.37
2023-05-08T00:10:41.665Z,60.40
2023-05-08T00:11:41.676Z,60.40
2023-05-08T00:12:41.710Z,60.38
2023-05-08T00:13:41.665Z,60.03
2023-05-08T00:14:41.701Z,59.98
2023-05-08T00:15:41.703Z,60.10
2023-05-08T00:16:41.767Z,59.82
2023-05-08T00:17:41.765Z,60.07
2023-05-08T00:18:41.723Z,60.39
2023-05-08T00:19:41.718Z,60.37
2023-05-08T00:20:41.749Z,60.12
2023-05-08T00:21:41.735Z,60.21
2023-05-08T00:22:41.829Z,59.96
2023-05-08T00:23:41.751Z,59.84
2023-05-08T00:24:41.754Z,60.16
2023-05-08T00:25:41.740Z,60.26
2023-05-08T00:26:41.757Z,60.09
2023-05-08T00:27:41.732Z,59.73
2023-05-08T00:28:41.753Z,59.98
2023-05-08T00:29:41.731Z,59.81
2023-05-08T00:30:41.734Z,59.71
2023-05-08T00:31:41.777Z,60.08
2023-05-08T00:32:41.753Z,60.14
2023-05-08T00:33:41.838Z,59.79
2023-05-08T00:34:41.782Z,59.79
2023-05-08T00:35:41.768Z,60.09
2023-05-08T00:36:41.777Z,60.00
2023-05-08T00:37:41.789Z,60.02
2023-05-08T00:38:41.814Z,60.11
2023-05-08T00:39:41.802Z,60.09
2023-05-08T00:40:41.797Z,60.04
2023-05-08T00:41:41.802Z,59.98
2023-05-08T00:42:41.793Z,60.11
2023-05-08T00:43:41.833Z,60.23
2023-05-08T00:44:41.829Z,60.28
2023-05-08T00:45:41.845Z,60.19
2023-05-08T00:46:41.996Z,60.09
2023-05-08T00:47:41.865Z,59.97
2023-05-08T00:48:41.851Z,60.11
2023-05-08T00:49:41.844Z,60.08
2023-05-08T00:50:41.868Z,60.17
2023-05-08T00:51:41.864Z,60.39
2023-05-08T00:52:41.854Z,60.38
2023-05-08T00:53:41.890Z,60.45
2023-05-08T00:54:41.892Z,60.49
2023-05-08T00:55:41.888Z,60.50
2023-05-08T00:56:41.879Z,60.38
2023-05-08T00:57:41.890Z,60.28
2023-05-08T00:58:41.878Z,60.27
2023-05-08T00:59:41.900Z,60.21
2023-05-08T01:00:41.896Z,60.28
2023-05-08T01:01:41.939Z,60.21
2023-05-08T01:02:41.978Z,60.61
2023-05-08T01:03:42.002Z,60.42
2023-05-08T01:04:41.954Z,60.44
2023-05-08T01:05:41.975Z,60.50
2023-05-08T01:06:41.972Z,60.40
2023-05-08T01:07:42.004Z,60.51
2023-05-08T01:08:42.002Z,60.41
2023-05-08T01:09:42.015Z,60.46
2023-05-08T01:10:42.028Z,60.51
2023-05-08T01:11:42.078Z,60.60
2023-05-08T01:12:42.110Z,60.68
2023-05-08T01:13:42.127Z,60.59
2023-05-08T01:14:42.174Z,60.73
2023-05-08T01:15:42.209Z,60.87
2023-05-08T01:16:42.220Z,60.93
2023-05-08T01:17:42.251Z,60.99
2023-05-08T01:18:42.261Z,61.21
2023-05-08T01:19:42.283Z,61.19
2023-05-08T01:20:42.315Z,61.23
2023-05-08T01:21:42.346Z,61.15
2023-05-08T01:22:42.352Z,61.14
2023-05-08T01:23:42.395Z,61.04
2023-05-08T01:24:42.426Z,61.09
2023-05-08T01:25:42.429Z,60.96
2023-05-08T01:26:42.429Z,60.94
2023-05-08T01:27:42.453Z,60.94
2023-05-08T01:28:42.475Z,60.80
2023-05-08T01:29:42.511Z,60.81
2023-05-08T01:30:42.545Z,60.93
2023-05-08T01:31:42.543Z,60.83
2023-05-08T01:32:42.574Z,60.84
2023-05-08T01:33:42.637Z,60.98
2023-05-08T01:34:42.581Z,60.83
2023-05-08T01:35:42.582Z,60.78
2023-05-08T01:36:42.596Z,60.70
2023-05-08T01:37:42.603Z,60.93
2023-05-08T01:38:42.617Z,60.98
2023-05-08T01:39:42.628Z,60.91
2023-05-08T01:40:42.688Z,61.05
2023-05-08T01:41:42.681Z,61.19
2023-05-08T01:42:42.689Z,61.02
2023-05-08T01:43:42.707Z,60.91
2023-05-08T01:44:42.729Z,61.21
2023-05-08T01:45:42.715Z,61.10
2023-05-08T01:46:42.779Z,61.06
2023-05-08T01:47:42.742Z,61.12
2023-05-08T01:48:42.719Z,61.36
2023-05-08T01:49:42.721Z,61.09
2023-05-08T01:50:42.731Z,61.08
2023-05-08T01:51:42.753Z,61.35
2023-05-08T01:52:42.761Z,61.27
2023-05-08T01:53:42.751Z,61.32
2023-05-08T01:54:42.760Z,61.17
2023-05-08T01:55:42.809Z,61.47
2023-05-08T01:56:42.798Z,61.74
2023-05-08T01:57:42.821Z,61.47
2023-05-08T01:58:42.818Z,61.24
2023-05-08T01:59:42.864Z,61.04
2023-05-08T02:00:42.916Z,61.15
2023-05-08T02:01:42.879Z,61.50
2023-05-08T02:02:42.980Z,61.34
2023-05-08T02:03:42.947Z,61.28
2023-05-08T02:04:42.919Z,61.21
2023-05-08T02:05:42.928Z,61.47
2023-05-08T02:06:42.930Z,61.93
2023-05-08T02:07:42.940Z,62.09
2023-05-08T02:08:42.950Z,62.33
2023-05-08T02:09:42.963Z,62.55
2023-05-08T02:10:42.983Z,62.76
2023-05-08T02:11:42.981Z,63.03
2023-05-08T02:12:43.015Z,62.92
2023-05-08T02:13:43.001Z,62.89
2023-05-08T02:14:43.007Z,63.11
2023-05-08T02:15:43.020Z,63.16
2023-05-08T02:16:43.073Z,63.27
2023-05-08T02:17:43.159Z,63.33
2023-05-08T02:18:43.081Z,63.26
2023-05-08T02:19:43.086Z,63.48
2023-05-08T02:20:43.106Z,63.34
2023-05-08T02:21:43.130Z,63.60
2023-05-08T02:22:43.189Z,63.60
2023-05-08T02:23:43.168Z,63.72
2023-05-08T02:24:43.196Z,63.62
2023-05-08T02:25:43.223Z,63.52
2023-05-08T02:26:43.356Z,63.35
2023-05-08T02:27:43.263Z,63.39
2023-05-08T02:28:43.283Z,63.19
2023-05-08T02:29:43.314Z,63.28
2023-05-08T02:30:43.354Z,63.38
2023-05-08T02:31:43.423Z,63.12
2023-05-08T02:32:43.448Z,63.05
2023-05-08T02:33:43.418Z,63.18
2023-05-08T02:34:54.985Z,63.31
2023-05-08T02:35:44.464Z,63.67
2023-05-08T02:36:43.437Z,63.84
2023-05-08T02:37:43.433Z,63.87
2023-05-08T02:38:43.413Z,63.66
2023-05-08T02:39:43.431Z,63.78
2023-05-08T02:40:43.426Z,63.86
2023-05-08T02:41:43.392Z,63.62
2023-05-08T02:42:43.384Z,63.60
2023-05-08T02:43:43.396Z,63.73
2023-05-08T02:44:43.378Z,63.53
2023-05-08T02:45:43.402Z,63.44
2023-05-08T02:46:43.380Z,62.88
2023-05-08T02:47:43.432Z,62.30
2023-05-08T02:48:43.335Z,62.26
2023-05-08T02:49:43.346Z,62.46
2023-05-08T02:50:43.338Z,62.55
2023-05-08T02:51:43.317Z,61.92
2023-05-08T02:52:43.319Z,61.75
2023-05-08T02:53:43.317Z,61.64
2023-05-08T02:54:43.321Z,61.61
2023-05-08T02:55:43.293Z,61.60
2023-05-08T02:56:43.339Z,61.55
2023-05-08T02:57:43.333Z,61.74
2023-05-08T02:58:43.326Z,61.30
2023-05-08T02:59:43.332Z,61.07
2023-05-08T03:00:43.354Z,60.60
2023-05-08T03:01:43.366Z,60.54
2023-05-08T03:02:43.436Z,60.39
2023-05-08T03:03:43.601Z,60.61
2023-05-08T03:04:43.414Z,60.58
2023-05-08T03:05:43.403Z,60.44
2023-05-08T03:06:43.413Z,60.15
2023-05-08T03:07:43.428Z,60.36
2023-05-08T03:08:43.454Z,60.27
2023-05-08T03:09:43.470Z,60.25
2023-05-08T03:10:43.472Z,60.08
2023-05-08T03:11:43.504Z,60.34
2023-05-08T03:12:43.544Z,60.15
2023-05-08T03:13:43.548Z,60.24
2023-05-08T03:14:43.560Z,60.42
2023-05-08T03:15:43.642Z,60.51
2023-05-08T03:16:43.605Z,60.69
2023-05-08T03:17:43.696Z,60.66
2023-05-08T03:18:43.635Z,60.33
2023-05-08T03:19:43.657Z,60.22
2023-05-08T03:20:43.688Z,60.16
2023-05-08T03:21:43.705Z,59.94
2023-05-08T03:22:43.738Z,60.19
2023-05-08T03:23:43.779Z,60.39
2023-05-08T03:24:43.808Z,60.26
2023-05-08T03:25:43.815Z,60.33
2023-05-08T03:26:43.822Z,61.04
2023-05-08T03:27:43.841Z,60.92
2023-05-08T03:28:43.820Z,60.69
2023-05-08T03:29:43.830Z,60.35
2023-05-08T03:30:43.840Z,60.29
2023-05-08T03:31:43.970Z,60.45
2023-05-08T03:32:43.839Z,60.33
2023-05-08T03:33:43.831Z,60.24
2023-05-08T03:34:43.853Z,60.13
2023-05-08T03:35:43.856Z,60.50
2023-05-08T03:36:43.918Z,60.27
2023-05-08T03:37:43.901Z,60.30
2023-05-08T03:38:43.883Z,60.26
2023-05-08T03:39:43.904Z,60.06
2023-05-08T03:40:43.922Z,60.09
2023-05-08T03:41:43.889Z,59.95
2023-05-08T03:42:43.895Z,60.07
2023-05-08T03:43:43.897Z,60.02
2023-05-08T03:44:43.918Z,60.18
2023-05-08T03:45:43.908Z,60.25
2023-05-08T03:46:43.975Z,60.10
2023-05-08T03:47:44.521Z,60.28
2023-05-08T03:48:43.987Z,60.36
2023-05-08T03:49:44.034Z,60.34
2023-05-08T03:50:44.039Z,60.49
2023-05-08T03:51:44.071Z,60.75
2023-05-08T03:52:44.120Z,60.71
2023-05-08T03:53:44.166Z,60.75
2023-05-08T03:54:44.216Z,60.93
2023-05-08T03:55:44.253Z,60.92
2023-05-08T03:56:44.303Z,61.01
2023-05-08T03:57:44.323Z,60.97
2023-05-08T03:58:44.405Z,60.87
2023-05-08T03:59:44.388Z,60.85
2023-05-08T04:00:44.433Z,60.90
2023-05-08T04:01:44.534Z,60.81
2023-05-08T04:02:44.518Z,61.07
2023-05-08T04:03:44.561Z,61.30
2023-05-08T04:04:44.538Z,61.26
2023-05-08T04:05:44.532Z,61.50
2023-05-08T04:06:49.858Z,61.38
2023-05-08T04:07:45.564Z,61.36
2023-05-08T04:08:44.552Z,61.13
2023-05-08T04:09:44.525Z,61.08
2023-05-08T04:10:44.548Z,60.91
2023-05-08T04:11:44.622Z,60.95
2023-05-08T04:12:44.566Z,60.98
2023-05-08T04:13:44.509Z,60.97
2023-05-08T04:14:44.495Z,61.00
2023-05-08T04:15:44.516Z,61.13
2023-05-08T04:16:44.597Z,61.03
2023-05-08T04:17:44.516Z,61.16
2023-05-08T04:18:44.520Z,61.17
2023-05-08T04:19:44.589Z,61.11
2023-05-08T04:20:46.247Z,61.02
2023-05-08T04:21:44.725Z,60.85
2023-05-08T04:22:44.778Z,61.07
2023-05-08T04:23:44.813Z,61.18
2023-05-08T04:24:44.858Z,61.08
2023-05-08T04:25:44.898Z,60.97
2023-05-08T04:26:44.936Z,60.82
2023-05-08T04:27:44.989Z,60.84
2023-05-08T04:28:45.053Z,60.77
2023-05-08T04:29:45.103Z,60.78
2023-05-08T04:30:45.140Z,60.91
2023-05-08T04:31:45.210Z,60.95
2023-05-08T04:32:46.760Z,61.12
2023-05-08T04:33:45.225Z,61.09
2023-05-08T04:34:45.276Z,61.00
2023-05-08T04:35:45.297Z,60.97
2023-05-08T04:36:45.361Z,60.86
2023-05-08T04:37:45.418Z,60.80
2023-05-08T04:38:45.456Z,60.62
2023-05-08T04:39:45.523Z,60.66
2023-05-08T04:40:45.609Z,60.58
2023-05-08T04:41:45.689Z,60.63
2023-05-08T04:42:45.683Z,60.70
2023-05-08T04:43:45.711Z,60.63
2023-05-08T04:44:45.743Z,60.64
2023-05-08T04:45:45.793Z,60.56
2023-05-08T04:46:45.819Z,60.54
2023-05-08T04:47:45.929Z,60.57
2023-05-08T04:48:45.931Z,60.55
2023-05-08T04:49:45.979Z,60.57
2023-05-08T04:50:46.015Z,60.71
2023-05-08T04:51:46.053Z,60.65
2023-05-08T04:52:46.085Z,60.46
2023-05-08T04:53:46.105Z,60.38
2023-05-08T04:54:46.193Z,60.56
2023-05-08T04:55:46.190Z,60.45
2023-05-08T04:56:46.230Z,60.42
2023-05-08T04:57:46.307Z,60.41
2023-05-08T04:58:46.293Z,60.40
2023-05-08T04:59:46.331Z,60.42
2023-05-08T05:00:46.342Z,60.37
2023-05-08T05:01:46.417Z,60.69
2023-05-08T05:02:46.453Z,60.64
2023-05-08T05:03:46.506Z,61.41
2023-05-08T05:04:46.532Z,61.34
2023-05-08T05:05:46.601Z,61.29
2023-05-08T05:06:46.630Z,61.19
2023-05-08T05:07:46.674Z,61.09
2023-05-08T05:08:46.723Z,61.50
2023-05-08T05:09:46.786Z,61.61
2023-05-08T05:10:46.832Z,61.40
2023-05-08T05:11:46.876Z,61.67
2023-05-08T05:12:47.062Z,61.64
2023-05-08T05:13:46.934Z,61.51
2023-05-08T05:14:46.951Z,61.27
2023-05-08T05:15:47.025Z,61.50
2023-05-08T05:16:46.996Z,61.27
2023-05-08T05:17:47.052Z,61.71
2023-05-08T05:18:47.070Z,62.00
2023-05-08T05:19:47.130Z,61.56
2023-05-08T05:20:47.157Z,61.30
2023-05-08T05:21:47.342Z,61.69
2023-05-08T05:22:47.230Z,61.88
2023-05-08T05:23:47.273Z,62.01
2023-05-08T05:24:47.302Z,62.05
2023-05-08T05:25:47.324Z,61.79
2023-05-08T05:26:47.331Z,61.38
2023-05-08T05:27:47.311Z,61.34
2023-05-08T05:28:47.360Z,61.42
2023-05-08T05:29:47.391Z,61.78
2023-05-08T05:30:47.401Z,61.88
2023-05-08T05:31:47.527Z,62.17
2023-05-08T05:32:47.508Z,62.30
2023-05-08T05:33:47.540Z,62.64
2023-05-08T05:34:47.561Z,62.84
2023-05-08T05:35:47.613Z,63.09
2023-05-08T05:36:47.643Z,63.24
2023-05-08T05:37:47.710Z,63.39
2023-05-08T05:38:47.770Z,63.69
2023-05-08T05:39:47.783Z,63.92
2023-05-08T05:40:47.814Z,64.10
2023-05-08T05:41:47.815Z,64.35
2023-05-08T05:42:47.814Z,64.15
2023-05-08T05:43:47.856Z,64.27
2023-05-08T05:44:47.836Z,64.16
2023-05-08T05:45:47.841Z,64.26
2023-05-08T05:46:47.945Z,64.16
2023-05-08T05:47:47.959Z,64.16
2023-05-08T05:48:47.946Z,64.25
2023-05-08T05:49:47.948Z,64.42
2023-05-08T05:50:47.934Z,64.29
2023-05-08T05:51:47.958Z,64.34
2023-05-08T05:52:48.080Z,64.43
2023-05-08T05:53:47.972Z,64.36
2023-05-08T05:54:47.996Z,64.34
2023-05-08T05:55:48.022Z,64.37
2023-05-08T05:56:48.006Z,64.26
2023-05-08T05:57:48.021Z,64.37
2023-05-08T05:58:48.033Z,64.30
2023-05-08T05:59:48.037Z,64.53
2023-05-08T06:00:48.039Z,64.29
2023-05-08T06:01:48.045Z,64.30
2023-05-08T06:02:48.175Z,64.18
2023-05-08T06:03:48.058Z,63.75
2023-05-08T06:04:48.043Z,63.81
2023-05-08T06:05:48.050Z,63.88
2023-05-08T06:06:48.125Z,63.80
2023-05-08T06:07:48.151Z,63.69
2023-05-08T06:08:48.213Z,63.38
2023-05-08T06:09:48.288Z,63.30
2023-05-08T06:10:48.354Z,63.53
2023-05-08T06:11:48.383Z,63.55
2023-05-08T06:12:48.484Z,63.50
2023-05-08T06:13:50.393Z,63.40
2023-05-08T06:14:48.554Z,63.46
2023-05-08T06:15:48.616Z,63.45
2023-05-08T06:16:48.699Z,63.42
2023-05-08T06:17:48.786Z,63.34
2023-05-08T06:18:48.763Z,63.24
2023-05-08T06:19:48.835Z,63.08
2023-05-08T06:20:48.865Z,63.23
2023-05-08T06:21:48.927Z,63.22
2023-05-08T06:22:48.962Z,63.22
2023-05-08T06:23:48.969Z,63.41
2023-05-08T06:24:49.042Z,63.33
2023-05-08T06:25:49.082Z,63.02
2023-05-08T06:26:49.139Z,63.01
2023-05-08T06:27:49.230Z,62.95
2023-05-08T06:28:49.260Z,63.21
2023-05-08T06:29:49.763Z,63.43
2023-05-08T06:30:49.625Z,63.52
2023-05-08T06:31:49.431Z,63.10
2023-05-08T06:32:49.582Z,62.95
2023-05-08T06:33:49.598Z,63.14
2023-05-08T06:34:49.572Z,63.01
2023-05-08T06:35:49.661Z,62.94
2023-05-08T06:36:49.762Z,63.00
2023-05-08T06:37:49.749Z,62.67
2023-05-08T06:38:49.828Z,62.77
2023-05-08T06:39:57.261Z,62.85
2023-05-08T06:40:50.904Z,62.84
2023-05-08T06:41:49.881Z,62.57
2023-05-08T06:42:49.842Z,62.62
2023-05-08T06:43:49.842Z,62.67
2023-05-08T06:44:49.850Z,62.43
2023-05-08T06:45:49.839Z,62.60
2023-05-08T06:46:50.026Z,62.54
2023-05-08T06:47:49.950Z,62.33
2023-05-08T06:48:49.814Z,62.18
2023-05-08T06:49:49.793Z,62.14
2023-05-08T06:50:49.794Z,62.18
2023-05-08T06:51:49.815Z,62.12
2023-05-08T06:52:49.867Z,62.25
2023-05-08T06:53:49.873Z,62.00
2023-05-08T06:54:50.355Z,62.02
2023-05-08T06:55:49.937Z,61.94
2023-05-08T06:56:49.952Z,62.12
2023-05-08T06:57:49.973Z,62.15
2023-05-08T06:58:57.002Z,62.23
2023-05-08T06:59:51.047Z,61.87
2023-05-08T07:00:49.984Z,61.93
2023-05-08T07:01:50.066Z,61.85
2023-05-08T07:02:50.149Z,62.26
2023-05-08T07:03:49.980Z,62.36
2023-05-08T07:04:50.034Z,62.20
2023-05-08T07:05:49.967Z,61.99
2023-05-08T07:06:49.950Z,61.84
2023-05-08T07:07:50.297Z,61.93
2023-05-08T07:08:49.958Z,61.94
2023-05-08T07:09:49.966Z,61.94
2023-05-08T07:10:49.946Z,61.96
2023-05-08T07:11:49.934Z,61.97
2023-05-08T07:12:50.026Z,61.83
2023-05-08T07:13:49.941Z,61.79
2023-05-08T07:14:49.910Z,61.55
2023-05-08T07:15:49.927Z,61.79
2023-05-08T07:16:49.902Z,61.96
2023-05-08T07:17:49.926Z,62.13
2023-05-08T07:18:49.922Z,61.86
2023-05-08T07:19:49.985Z,62.04
2023-05-08T07:20:49.981Z,61.87
2023-05-08T07:21:49.986Z,61.56
2023-05-08T07:22:49.978Z,61.54
2023-05-08T07:23:49.982Z,61.54
2023-05-08T07:24:50.039Z,61.43
2023-05-08T07:25:50.040Z,61.23
2023-05-08T07:26:50.061Z,61.11
2023-05-08T07:27:50.056Z,61.13
2023-05-08T07:28:50.042Z,61.20
2023-05-08T07:29:50.103Z,61.33
2023-05-08T07:30:50.095Z,61.24
2023-05-08T07:31:50.131Z,61.41
2023-05-08T07:32:50.189Z,61.49
2023-05-08T07:33:50.143Z,61.55
2023-05-08T07:34:50.246Z,61.85
2023-05-08T07:35:50.196Z,61.80
2023-05-08T07:36:50.216Z,62.09
2023-05-08T07:37:50.246Z,62.34
2023-05-08T07:38:50.240Z,62.41
2023-05-08T07:39:50.253Z,62.43
2023-05-08T07:40:50.781Z,62.46
2023-05-08T07:41:50.339Z,62.06
2023-05-08T07:42:50.767Z,62.18
2023-05-08T07:43:50.326Z,62.04
2023-05-08T07:44:54.473Z,62.07
2023-05-08T07:45:50.346Z,62.10
2023-05-08T07:46:50.401Z,62.06
2023-05-08T07:47:51.163Z,61.83
2023-05-08T07:48:50.379Z,61.75
2023-05-08T07:49:50.322Z,61.70
2023-05-08T07:50:50.368Z,61.55
2023-05-08T07:51:50.303Z,61.93
2023-05-08T07:52:50.764Z,62.09
2023-05-08T07:53:50.290Z,62.27
2023-05-08T07:54:50.301Z,62.35
2023-05-08T07:55:50.266Z,62.44
2023-05-08T07:56:50.282Z,62.82
2023-05-08T07:57:50.302Z,63.12
2023-05-08T07:58:50.266Z,62.98
2023-05-08T07:59:50.250Z,62.93
2023-05-08T08:00:50.247Z,62.81
2023-05-08T08:01:50.263Z,62.64
2023-05-08T08:02:50.468Z,62.45
2023-05-08T08:03:50.390Z,62.36
2023-05-08T08:04:50.228Z,62.29
2023-05-08T08:05:50.365Z,61.33
2023-05-08T08:06:50.233Z,61.42
2023-05-08T08:07:50.288Z,61.61
2023-05-08T08:08:50.236Z,61.47
2023-05-08T08:09:50.193Z,61.31
2023-05-08T08:10:50.259Z,61.01
2023-05-08T08:11:50.479Z,60.65
2023-05-08T08:12:50.812Z,60.45
2023-05-08T08:13:50.361Z,60.61
2023-05-08T08:14:50.510Z,60.80
2023-05-08T08:15:50.484Z,60.62
2023-05-08T08:16:50.574Z,60.69
2023-05-08T08:17:50.937Z,60.44
2023-05-08T08:18:50.590Z,60.03
2023-05-08T08:19:50.645Z,59.86
2023-05-08T08:20:50.741Z,59.94
2023-05-08T08:21:50.829Z,60.07
2023-05-08T08:22:50.878Z,60.25
2023-05-08T08:23:50.872Z,60.18
2023-05-08T08:24:52.466Z,60.06
2023-05-08T08:25:51.325Z,60.11
2023-05-08T08:26:50.935Z,60.17
2023-05-08T08:27:50.888Z,59.91
2023-05-08T08:28:51.016Z,60.14
2023-05-08T08:29:52.523Z,60.42
2023-05-08T08:30:51.888Z,60.82
2023-05-08T08:31:50.893Z,60.74
2023-05-08T08:32:50.956Z,61.39
2023-05-08T08:33:50.875Z,61.49
2023-05-08T08:34:50.870Z,61.18
2023-05-08T08:35:50.873Z,60.70
2023-05-08T08:36:50.827Z,60.52
2023-05-08T08:37:51.309Z,60.04
2023-05-08T08:38:50.908Z,60.35
2023-05-08T08:39:50.825Z,60.34
2023-05-08T08:40:50.859Z,60.73
2023-05-08T08:41:50.859Z,60.77
2023-05-08T08:42:51.299Z,60.55
2023-05-08T08:43:50.940Z,60.29
2023-05-08T08:44:50.946Z,59.76
2023-05-08T08:45:51.014Z,59.94
2023-05-08T08:46:51.083Z,60.15
2023-05-08T08:47:51.124Z,60.07
2023-05-08T08:48:51.051Z,59.90
2023-05-08T08:49:51.060Z,60.15
2023-05-08T08:50:51.127Z,59.94
2023-05-08T08:51:51.122Z,59.43
2023-05-08T08:52:51.129Z,58.80
2023-05-08T08:53:51.107Z,58.65
2023-05-08T08:54:51.224Z,58.46
2023-05-08T08:55:51.112Z,58.92
2023-05-08T08:56:51.115Z,58.16
2023-05-08T08:57:51.111Z,58.11
2023-05-08T08:58:51.233Z,57.65
2023-05-08T08:59:51.159Z,57.70
2023-05-08T09:00:51.164Z,57.97
2023-05-08T09:01:51.330Z,57.61
2023-05-08T09:02:51.271Z,58.19
2023-05-08T09:03:51.246Z,58.71
2023-05-08T09:04:51.198Z,58.78
2023-05-08T09:05:51.329Z,57.97
2023-05-08T09:06:51.207Z,58.06
2023-05-08T09:07:51.352Z,58.19
2023-05-08T09:08:51.211Z,57.75
2023-05-08T09:09:51.260Z,57.57
2023-05-08T09:10:51.309Z,57.68
2023-05-08T09:11:51.270Z,58.24
2023-05-08T09:12:51.365Z,58.70
2023-05-08T09:13:51.283Z,59.34
2023-05-08T09:14:51.296Z,59.33
2023-05-08T09:15:51.403Z,59.43
2023-05-08T09:16:51.357Z,58.96
2023-05-08T09:17:51.396Z,59.18
2023-05-08T09:18:51.336Z,59.29
2023-05-08T09:19:51.347Z,59.51
2023-05-08T09:20:51.432Z,59.82
2023-05-08T09:21:51.343Z,59.35
2023-05-08T09:22:51.387Z,59.18
2023-05-08T09:23:51.383Z,58.75
2023-05-08T09:24:51.416Z,58.88
2023-05-08T09:25:51.402Z,58.84
2023-05-08T09:26:51.497Z,58.86
2023-05-08T09:27:51.818Z,58.76
2023-05-08T09:28:51.843Z,58.80
2023-05-08T09:29:51.445Z,59.28
2023-05-08T09:30:51.441Z,59.34
2023-05-08T09:31:51.580Z,59.70
2023-05-08T09:32:51.561Z,60.19
2023-05-08T09:33:51.821Z,59.82
2023-05-08T09:34:51.613Z,59.16
2023-05-08T09:35:51.703Z,59.19
2023-05-08T09:36:51.755Z,59.14
2023-05-08T09:37:51.805Z,60.21
2023-05-08T09:38:52.321Z,59.95
2023-05-08T09:39:51.982Z,59.95
2023-05-08T09:40:52.366Z,60.14
2023-05-08T09:41:52.033Z,60.03
2023-05-08T09:42:52.168Z,59.59
2023-05-08T09:43:52.176Z,59.53
2023-05-08T09:44:52.230Z,59.58
2023-05-08T09:45:52.307Z,58.90
2023-05-08T09:46:52.323Z,58.87
2023-05-08T09:47:52.413Z,58.13
2023-05-08T09:48:52.431Z,57.93
2023-05-08T09:49:52.465Z,58.28
2023-05-08T09:50:52.537Z,58.10
2023-05-08T09:51:52.711Z,58.73
2023-05-08T09:52:52.719Z,58.89
2023-05-08T09:53:52.740Z,59.53
2023-05-08T09:54:52.781Z,59.96
2023-05-08T09:55:52.824Z,60.15
2023-05-08T09:56:52.881Z,60.36
2023-05-08T09:57:52.941Z,60.22
2023-05-08T09:58:53.085Z,60.34
2023-05-08T09:59:53.073Z,60.14
2023-05-08T10:00:53.127Z,59.83
2023-05-08T10:01:53.132Z,59.55
2023-05-08T10:02:53.365Z,58.86
2023-05-08T10:03:53.362Z,58.84
2023-05-08T10:04:53.238Z,59.73
2023-05-08T10:05:53.323Z,59.55
2023-05-08T10:06:56.378Z,59.32
2023-05-08T10:07:53.848Z,59.35
2023-05-08T10:08:53.360Z,59.52
2023-05-08T10:09:53.353Z,59.75
2023-05-08T10:10:53.404Z,59.35
2023-05-08T10:11:53.328Z,59.22
2023-05-08T10:12:53.376Z,59.41
2023-05-08T10:13:53.452Z,59.73
2023-05-08T10:14:53.383Z,59.56
2023-05-08T10:15:53.311Z,59.39
2023-05-08T10:16:53.336Z,59.10
2023-05-08T10:17:53.355Z,59.11
2023-05-08T10:18:53.321Z,58.80
2023-05-08T10:19:53.280Z,59.19
2023-05-08T10:20:53.363Z,58.97
2023-05-08T10:21:53.340Z,59.21
2023-05-08T10:22:53.290Z,58.22
2023-05-08T10:23:53.287Z,57.58
2023-05-08T10:24:53.256Z,58.40
2023-05-08T10:25:55.021Z,59.02
2023-05-08T10:27:05.735Z,58.91
2023-05-08T10:27:54.253Z,57.64
2023-05-08T10:28:53.323Z,57.43
2023-05-08T10:29:53.210Z,57.52
2023-05-08T10:30:53.348Z,57.79
2023-05-08T10:31:53.208Z,57.14
2023-05-08T10:32:53.233Z,57.19
2023-05-08T10:33:53.204Z,58.08
2023-05-08T10:34:53.237Z,58.48
2023-05-08T10:35:53.211Z,58.18
2023-05-08T10:36:54.185Z,58.89
2023-05-08T10:37:53.237Z,58.34
2023-05-08T10:38:53.278Z,57.79
2023-05-08T10:39:53.344Z,57.87
2023-05-08T10:40:53.445Z,57.93
2023-05-08T10:41:53.465Z,57.11
2023-05-08T10:42:53.502Z,56.54
2023-05-08T10:43:53.514Z,56.18
2023-05-08T10:44:53.542Z,55.99
2023-05-08T10:45:53.657Z,55.23
2023-05-08T10:46:53.734Z,55.83
2023-05-08T10:47:53.755Z,55.84
2023-05-08T10:48:53.733Z,55.27
2023-05-08T10:49:53.719Z,54.99
2023-05-08T10:50:53.731Z,55.57
2023-05-08T10:51:53.753Z,55.84
2023-05-08T10:52:53.763Z,55.29
2023-05-08T10:53:53.799Z,55.41
2023-05-08T10:54:53.772Z,55.35
2023-05-08T10:55:53.972Z,54.59
2023-05-08T10:56:53.800Z,53.88
2023-05-08T10:57:53.786Z,53.36
2023-05-08T10:58:53.828Z,53.16
2023-05-08T10:59:53.802Z,53.26
2023-05-08T11:00:53.845Z,54.97
2023-05-08T11:01:53.867Z,56.03
2023-05-08T11:02:53.938Z,55.98
2023-05-08T11:03:53.929Z,55.29
2023-05-08T11:04:53.854Z,55.13
2023-05-08T11:05:53.922Z,55.65
2023-05-08T11:06:53.859Z,55.64
2023-05-08T11:07:53.890Z,54.89
2023-05-08T11:08:54.248Z,54.97
2023-05-08T11:09:54.039Z,54.73
2023-05-08T11:10:54.047Z,54.76
2023-05-08T11:11:54.119Z,54.45
2023-05-08T11:12:54.254Z,53.57
2023-05-08T11:13:54.230Z,53.68
2023-05-08T11:14:54.225Z,54.17
2023-05-08T11:15:54.335Z,54.46
2023-05-08T11:16:54.379Z,54.09
2023-05-08T11:17:54.518Z,53.93
2023-05-08T11:18:54.841Z,53.30
2023-05-08T11:19:54.546Z,52.78
2023-05-08T11:20:54.579Z,52.42
2023-05-08T11:21:54.856Z,52.38
2023-05-08T11:22:54.698Z,51.64
2023-05-08T11:23:54.745Z,53.65
2023-05-08T11:24:54.789Z,52.57
2023-05-08T11:25:54.836Z,54.11
2023-05-08T11:26:54.878Z,53.87
2023-05-08T11:27:54.897Z,54.44
2023-05-08T11:28:54.986Z,54.12
2023-05-08T11:29:54.960Z,53.55
2023-05-08T11:30:54.991Z,53.01
2023-05-08T11:31:55.035Z,53.86
2023-05-08T11:32:55.083Z,53.59
2023-05-08T11:33:55.064Z,52.76
2023-05-08T11:34:55.063Z,52.77
2023-05-08T11:35:55.048Z,52.48
2023-05-08T11:36:55.063Z,52.92
2023-05-08T11:37:55.073Z,52.80
2023-05-08T11:38:56.348Z,52.37
2023-05-08T11:39:55.076Z,52.48
2023-05-08T11:40:55.105Z,51.87
2023-05-08T11:41:55.102Z,52.24
2023-05-08T11:42:55.127Z,52.75
2023-05-08T11:43:55.146Z,52.18
2023-05-08T11:44:55.170Z,51.98
2023-05-08T11:45:55.180Z,52.50
2023-05-08T11:46:55.233Z,52.97
2023-05-08T11:47:55.201Z,53.05
2023-05-08T11:48:55.204Z,53.87
2023-05-08T11:49:55.275Z,52.61
2023-05-08T11:50:55.267Z,51.77
2023-05-08T11:51:55.266Z,52.59
2023-05-08T11:52:55.244Z,51.69
2023-05-08T11:53:55.268Z,51.93
2023-05-08T11:54:55.251Z,52.27
2023-05-08T11:55:55.257Z,51.67
2023-05-08T11:56:55.264Z,51.17
2023-05-08T11:57:55.275Z,51.12
2023-05-08T11:58:55.278Z,51.62
2023-05-08T11:59:55.262Z,51.05
2023-05-08T12:00:55.424Z,50.93
2023-05-08T12:02:55.341Z,51.08
2023-05-08T12:03:55.401Z,50.23
2023-05-08T12:04:55.317Z,49.63
2023-05-08T12:05:55.257Z,48.98
2023-05-08T12:06:55.248Z,48.47
2023-05-08T12:07:55.219Z,48.63
2023-05-08T12:08:55.232Z,48.60
2023-05-08T12:09:55.209Z,49.05
2023-05-08T12:10:55.216Z,49.13
2023-05-08T12:11:55.202Z,48.47
2023-05-08T12:12:55.233Z,48.58
2023-05-08T12:13:55.217Z,48.45
2023-05-08T12:14:55.174Z,49.01
2023-05-08T12:15:55.167Z,49.74
2023-05-08T12:16:55.208Z,49.67
2023-05-08T12:17:55.172Z,50.34
2023-05-08T12:18:55.160Z,49.84
2023-05-08T12:19:55.156Z,48.63
2023-05-08T12:20:55.158Z,48.93
2023-05-08T12:21:55.147Z,48.83
2023-05-08T12:22:55.139Z,49.72
2023-05-08T12:23:55.134Z,49.56
2023-05-08T12:24:55.129Z,48.67
2023-05-08T12:25:55.545Z,48.66
2023-05-08T12:26:55.097Z,48.72
2023-05-08T12:27:55.110Z,49.19
2023-05-08T12:28:55.104Z,49.22
2023-05-08T12:29:55.090Z,49.86
2023-05-08T12:30:55.101Z,50.44
2023-05-08T12:31:55.090Z,50.20
2023-05-08T12:32:55.119Z,50.43
2023-05-08T12:33:55.072Z,49.98
2023-05-08T12:34:55.053Z,49.60
2023-05-08T12:35:55.074Z,49.46
2023-05-08T12:36:55.037Z,49.15
2023-05-08T12:37:55.029Z,49.24
2023-05-08T12:38:55.113Z,48.65
2023-05-08T12:39:55.005Z,49.15
2023-05-08T12:40:55.020Z,49.88
2023-05-08T12:41:54.993Z,49.62
2023-05-08T12:42:54.990Z,49.89
2023-05-08T12:43:54.973Z,48.85
2023-05-08T12:44:54.974Z,48.81
2023-05-08T12:45:54.973Z,48.97
2023-05-08T12:46:55.048Z,49.62
2023-05-08T12:47:55.041Z,49.38
2023-05-08T12:48:54.955Z,48.94
2023-05-08T12:49:54.977Z,48.40
2023-05-08T12:50:54.921Z,48.39
2023-05-08T12:51:54.922Z,48.30
2023-05-08T12:52:54.924Z,49.07
2023-05-08T12:53:54.904Z,48.91